createdAt,value
2023-05-08T00:02:14.913Z,7.40
2023-05-08T00:04:42.200Z,7.50
2023-05-08T00:07:09.530Z,7.40
2023-05-08T00:09:37.679Z,7.40
2023-05-08T00:12:05.570Z,7.30
2023-05-08T00:14:32.804Z,7.20
2023-05-08T00:17:00.030Z,7.10
2023-05-08T00:19:27.512Z,7.50
2023-05-08T00:21:54.834Z,7.10
2023-05-08T00:24:22.268Z,7.10
2023-05-08T00:26:49.589Z,7.40
2023-05-08T00:29:16.854Z,6.90
2023-05-08T00:31:44.156Z,7.10
2023-05-08T00:34:11.525Z,7.00
2023-05-08T00:36:38.689Z,7.10
2023-05-08T00:39:05.936Z,7.10
2023-05-08T00:41:33.116Z,7.20
2023-05-08T00:44:00.257Z,7.20
2023-05-08T00:46:27.591Z,7.20
2023-05-08T00:48:55.049Z,7.10
2023-05-08T00:51:22.773Z,7.10
2023-05-08T00:53:50.235Z,7.10
2023-05-08T00:56:20.620Z,7.00
2023-05-08T00:58:48.305Z,7.00
2023-05-08T01:01:16.121Z,6.90
2023-05-08T01:03:44.990Z,7.00
2023-05-08T01:06:12.715Z,7.00
2023-05-08T01:08:40.489Z,7.10
2023-05-08T01:11:46.242Z,7.10
2023-05-08T01:14:21.531Z,7.20
2023-05-08T01:17:12.569Z,7.10
2023-05-08T01:19:48.504Z,7.20
2023-05-08T01:23:05.172Z,7.20
2023-05-08T01:26:14.883Z,7.10
2023-05-08T01:29:24.072Z,7.10
2023-05-08T01:32:12.465Z,7.00
2023-05-08T01:35:13.710Z,7.00
2023-05-08T01:37:49.615Z,6.90
2023-05-08T01:40:23.207Z,6.90
2023-05-08T01:43:06.346Z,6.90
2023-05-08T01:45:39.986Z,7.00
2023-05-08T01:48:17.994Z,7.00
2023-05-08T01:50:54.015Z,6.90
2023-05-08T01:53:37.176Z,6.90
2023-05-08T01:56:12.032Z,6.70
2023-05-08T01:58:40.007Z,6.60
2023-05-08T02:01:08.910Z,6.50
2023-05-08T02:03:37.578Z,6.40
2023-05-08T02:06:09.541Z,6.40
2023-05-08T02:08:37.668Z,6.40
2023-05-08T02:11:06.905Z,6.40
2023-05-08T02:13:35.873Z,6.50
2023-05-08T02:16:04.323Z,6.50
2023-05-08T02:18:32.437Z,6.60
2023-05-08T02:21:02.818Z,6.60
2023-05-08T02:23:31.459Z,6.70
2023-05-08T02:25:59.643Z,6.60
2023-05-08T02:28:29.726Z,6.60
2023-05-08T02:31:00.435Z,6.60
2023-05-08T02:33:29.267Z,6.60
2023-05-08T02:35:58.877Z,6.60
2023-05-08T02:38:27.310Z,6.60
2023-05-08T02:41:01.013Z,6.60
2023-05-08T02:43:28.791Z,6.60
2023-05-08T02:46:26.497Z,6.60
2023-05-08T02:49:11.292Z,6.50
2023-05-08T02:51:53.850Z,6.50
2023-05-08T02:54:40.460Z,6.50
2023-05-08T02:57:28.638Z,6.50
2023-05-08T03:00:18.789Z,6.50
2023-05-08T03:02:59.692Z,6.50
2023-05-08T03:05:33.074Z,6.40
2023-05-08T03:08:03.918Z,6.50
2023-05-08T03:10:35.516Z,6.50
2023-05-08T03:13:09.538Z,6.40
2023-05-08T03:15:44.941Z,6.50
2023-05-08T03:18:17.962Z,6.50
2023-05-08T03:20:49.832Z,6.50
2023-05-08T03:23:20.416Z,6.50
2023-05-08T03:25:47.938Z,6.40
2023-05-08T03:28:18.442Z,6.30
2023-05-08T03:30:46.705Z,6.20
2023-05-08T03:33:17.670Z,6.20
2023-05-08T03:35:46.492Z,6.20
2023-05-08T03:38:13.889Z,6.20
2023-05-08T03:40:42.817Z,6.30
2023-05-08T03:43:11.906Z,6.30
2023-05-08T03:45:41.121Z,6.40
2023-05-08T03:48:09.848Z,6.50
2023-05-08T03:50:38.672Z,6.50
2023-05-08T03:53:08.953Z,6.60
2023-05-08T03:55:47.275Z,6.50
2023-05-08T03:58:24.760Z,6.50
2023-05-08T04:01:27.179Z,6.50
2023-05-08T04:04:18.610Z,6.50
2023-05-08T04:07:23.638Z,6.60
2023-05-08T04:10:08.973Z,6.70
2023-05-08T04:13:06.946Z,6.90
2023-05-08T04:15:44.557Z,7.00
2023-05-08T04:18:18.109Z,7.20
2023-05-08T04:20:49.038Z,7.30
2023-05-08T04:23:20.706Z,7.50
2023-05-08T04:25:51.625Z,7.70
2023-05-08T04:28:22.851Z,7.80
2023-05-08T04:30:51.980Z,8.00
2023-05-08T04:33:19.390Z,8.20
2023-05-08T04:35:47.177Z,8.20
2023-05-08T04:38:15.012Z,8.60
2023-05-08T04:40:42.850Z,8.70
2023-05-08T04:43:11.374Z,8.90
2023-05-08T04:45:39.033Z,9.00
2023-05-08T04:48:06.513Z,9.00
2023-05-08T04:50:33.793Z,9.10
2023-05-08T04:53:00.956Z,9.20
2023-05-08T04:55:31.332Z,9.30
2023-05-08T04:58:02.497Z,9.30
2023-05-08T05:00:29.866Z,9.40
2023-05-08T05:02:57.761Z,9.50
2023-05-08T05:05:25.025Z,9.70
2023-05-08T05:07:52.263Z,9.70
2023-05-08T05:10:21.396Z,9.80
2023-05-08T05:12:48.587Z,9.80
2023-05-08T05:15:15.943Z,9.90
2023-05-08T05:17:43.737Z,9.90
2023-05-08T05:20:12.052Z,10.10
2023-05-08T05:22:39.437Z,10.30
2023-05-08T05:27:36.941Z,10.40
2023-05-08T05:30:07.106Z,10.60
2023-05-08T05:32:34.748Z,10.80
2023-05-08T05:35:02.715Z,10.90
2023-05-08T05:37:30.594Z,11.00
2023-05-08T05:39:57.960Z,11.10
2023-05-08T05:42:25.894Z,11.40
2023-05-08T05:44:56.795Z,11.60
2023-05-08T05:47:24.723Z,11.30
2023-05-08T05:49:52.263Z,11.20
2023-05-08T05:52:19.808Z,11.30
2023-05-08T05:54:47.364Z,11.70
2023-05-08T05:57:15.051Z,11.90
2023-05-08T05:59:43.534Z,12.00
2023-05-08T06:02:16.528Z,12.00
2023-05-08T06:04:44.696Z,12.00
2023-05-08T06:07:12.473Z,12.30
2023-05-08T06:09:40.455Z,12.50
2023-05-08T06:12:10.548Z,12.70
2023-05-08T06:14:38.220Z,12.60
2023-05-08T06:17:06.002Z,12.50
2023-05-08T06:19:33.544Z,12.60
2023-05-08T06:22:01.200Z,12.60
2023-05-08T06:24:29.031Z,12.60
2023-05-08T06:26:56.579Z,12.70
2023-05-08T06:29:24.222Z,13.00
2023-05-08T06:31:51.766Z,13.30
2023-05-08T06:34:20.538Z,13.10
2023-05-08T06:36:47.949Z,12.80
2023-05-08T06:39:15.948Z,12.60
2023-05-08T06:41:43.527Z,12.80
2023-05-08T06:44:11.761Z,13.00
2023-05-08T06:46:39.465Z,13.10
2023-05-08T06:49:06.980Z,13.40
2023-05-08T06:51:35.757Z,13.80
2023-05-08T06:54:05.824Z,13.70
2023-05-08T06:56:33.816Z,13.50
2023-05-08T06:59:08.592Z,13.60
2023-05-08T07:01:37.590Z,13.60
2023-05-08T07:04:06.099Z,13.70
2023-05-08T07:06:34.261Z,14.00
2023-05-08T07:09:01.827Z,14.20
2023-05-08T07:11:29.449Z,14.00
2023-05-08T07:13:57.000Z,13.90
2023-05-08T07:16:24.647Z,13.90
2023-05-08T07:18:52.621Z,14.10
2023-05-08T07:21:21.407Z,14.40
2023-05-08T07:23:51.742Z,14.70
2023-05-08T07:26:19.210Z,14.60
2023-05-08T07:28:46.698Z,14.70
2023-05-08T07:31:14.138Z,14.90
2023-05-08T07:33:41.727Z,14.80
2023-05-08T07:36:09.334Z,14.70
2023-05-08T07:38:37.226Z,14.60
2023-05-08T07:41:05.432Z,14.60
2023-05-08T07:43:33.129Z,15.10
2023-05-08T07:46:00.809Z,15.50
2023-05-08T07:48:28.355Z,15.80
2023-05-08T07:50:56.720Z,15.70
2023-05-08T07:53:24.216Z,15.80
2023-05-08T07:55:51.900Z,15.50
2023-05-08T07:58:19.367Z,15.50
2023-05-08T08:00:46.783Z,15.60
2023-05-08T08:03:14.335Z,15.70
2023-05-08T08:05:42.244Z,15.90
2023-05-08T08:08:09.760Z,15.80
2023-05-08T08:10:37.422Z,15.60
2023-05-08T08:13:05.534Z,15.90
2023-05-08T08:15:33.529Z,15.70
2023-05-08T08:18:01.646Z,16.00
2023-05-08T08:20:29.339Z,15.90
2023-05-08T08:22:56.766Z,15.80
2023-05-08T08:25:24.686Z,16.20
2023-05-08T08:27:52.446Z,16.70
2023-05-08T08:30:20.549Z,16.50
2023-05-08T08:32:48.550Z,16.70
2023-05-08T08:35:17.129Z,16.80
2023-05-08T08:37:44.863Z,16.80
2023-05-08T08:40:12.503Z,16.90
2023-05-08T08:42:40.911Z,17.20
2023-05-08T08:45:08.845Z,17.60
2023-05-08T08:47:38.086Z,17.20
2023-05-08T08:50:09.542Z,17.10
2023-05-08T08:53:22.241Z,17.10
2023-05-08T08:55:52.630Z,17.10
2023-05-08T08:58:36.556Z,17.10
2023-05-08T09:01:08.214Z,17.50
2023-05-08T09:03:36.075Z,18.10
2023-05-08T09:06:04.718Z,18.10
2023-05-08T09:08:33.635Z,18.40
2023-05-08T09:11:03.508Z,18.00
2023-05-08T09:13:33.425Z,17.80
2023-05-08T09:16:01.506Z,17.40
2023-05-08T09:18:30.000Z,17.40
2023-05-08T09:20:58.725Z,17.80
2023-05-08T09:23:26.644Z,18.20
2023-05-08T09:25:56.070Z,19.20
2023-05-08T09:28:26.284Z,18.60
2023-05-08T09:30:58.469Z,18.60
2023-05-08T09:33:28.763Z,18.80
2023-05-08T09:35:57.566Z,18.90
2023-05-08T09:38:35.385Z,18.50
2023-05-08T09:41:15.671Z,18.10
2023-05-08T09:43:45.669Z,18.10
2023-05-08T09:46:27.179Z,18.30
2023-05-08T09:48:58.556Z,18.20
2023-05-08T09:51:28.659Z,18.40
2023-05-08T09:53:59.219Z,18.40
2023-05-08T09:56:34.015Z,18.50
2023-05-08T09:59:22.024Z,17.90
2023-05-08T10:01:49.499Z,18.00
2023-05-08T10:04:17.069Z,18.30
2023-05-08T10:06:44.824Z,18.50
2023-05-08T10:09:14.619Z,18.50
2023-05-08T10:11:55.489Z,18.70
2023-05-08T10:14:24.666Z,19.10
2023-05-08T10:16:55.170Z,19.30
2023-05-08T10:19:26.087Z,19.10
2023-05-08T10:21:59.932Z,19.20
2023-05-08T10:24:34.682Z,19.20
2023-05-08T10:27:14.928Z,19.10
2023-05-08T10:29:57.198Z,18.90
2023-05-08T10:32:26.050Z,19.10
2023-05-08T10:34:59.735Z,19.30
2023-05-08T10:37:30.815Z,19.30
2023-05-08T10:39:59.077Z,19.80
2023-05-08T10:42:28.858Z,20.50
2023-05-08T10:44:57.766Z,21.10
2023-05-08T10:47:34.681Z,20.60
2023-05-08T10:50:18.058Z,21.30
2023-05-08T10:53:11.888Z,21.90
2023-05-08T10:55:42.166Z,21.70
2023-05-08T10:58:16.232Z,21.50
2023-05-08T11:00:54.025Z,21.50
2023-05-08T11:03:32.306Z,21.70
2023-05-08T11:06:01.866Z,22.50
2023-05-08T11:08:30.980Z,23.60
2023-05-08T11:11:02.160Z,24.60
2023-05-08T11:13:35.149Z,25.40
2023-05-08T11:16:04.208Z,25.30
2023-05-08T11:18:45.680Z,24.50
2023-05-08T11:21:23.917Z,23.60
2023-05-08T11:24:00.769Z,23.40
2023-05-08T11:26:40.673Z,22.70
2023-05-08T11:29:17.449Z,22.30
2023-05-08T11:31:52.644Z,22.40
2023-05-08T11:34:41.922Z,22.60
2023-05-08T11:37:26.707Z,22.70
2023-05-08T11:39:53.796Z,23.30
2023-05-08T11:42:27.157Z,24.00
2023-05-08T11:45:08.138Z,23.10
2023-05-08T11:47:44.406Z,23.60
2023-05-08T11:50:13.681Z,23.10
2023-05-08T11:52:43.022Z,23.40
2023-05-08T11:55:12.167Z,23.70
2023-05-08T11:57:39.770Z,24.80
2023-05-08T12:00:09.656Z,25.20
2023-05-08T12:02:45.900Z,24.40
2023-05-08T12:05:13.345Z,23.40
2023-05-08T12:07:47.511Z,23.50
2023-05-08T12:10:16.692Z,24.80
2023-05-08T12:12:45.165Z,25.30
2023-05-08T12:15:15.253Z,25.30
2023-05-08T12:17:42.952Z,25.00
2023-05-08T12:20:13.358Z,25.60
2023-05-08T12:22:51.732Z,24.90
2023-05-08T12:25:19.552Z,24.80
2023-05-08T12:27:47.381Z,25.40
2023-05-08T12:30:16.218Z,25.70
2023-05-08T12:32:44.424Z,25.30
2023-05-08T12:35:13.305Z,25.70
2023-05-08T12:37:40.768Z,24.70
2023-05-08T12:40:19.500Z,24.20
2023-05-08T12:42:50.936Z,23.90
2023-05-08T12:45:28.282Z,24.30
2023-05-08T12:48:06.933Z,25.00
2023-05-08T12:50:40.161Z,25.00
2023-05-08T12:53:10.690Z,26.30
2023-05-08T12:55:40.145Z,26.90
2023-05-08T12:58:15.238Z,25.80
2023-05-08T13:00:47.817Z,26.40
2023-05-08T13:03:28.563Z,26.90
2023-05-08T13:05:58.519Z,27.60
2023-05-08T13:08:34.521Z,27.20
2023-05-08T13:11:03.927Z,26.10
2023-05-08T13:13:35.201Z,27.20
2023-05-08T13:16:07.529Z,27.20
2023-05-08T13:18:37.661Z,27.50
2023-05-08T13:21:05.142Z,27.80
2023-05-08T13:23:32.268Z,28.40
2023-05-08T13:25:59.356Z,28.10
2023-05-08T13:28:26.531Z,28.20
2023-05-08T13:30:53.680Z,28.60
2023-05-08T13:33:20.908Z,27.80
2023-05-08T13:35:48.207Z,26.80
2023-05-08T13:38:15.502Z,26.90
2023-05-08T13:40:42.646Z,27.20
2023-05-08T13:43:09.765Z,26.90
2023-05-08T13:45:37.294Z,27.00
2023-05-08T13:48:04.852Z,27.10
2023-05-08T13:50:32.007Z,26.10
2023-05-08T13:52:59.135Z,23.70
2023-05-08T13:55:26.497Z,22.00
2023-05-08T13:57:53.729Z,20.90
2023-05-08T14:00:21.293Z,20.20
2023-05-08T14:02:50.761Z,19.90
2023-05-08T14:05:19.568Z,19.60
2023-05-08T14:07:46.833Z,19.50
2023-05-08T14:10:14.363Z,19.30
2023-05-08T14:12:41.490Z,19.30
2023-05-08T14:15:09.847Z,19.00
2023-05-08T14:17:37.152Z,18.90
2023-05-08T14:20:05.152Z,18.90
2023-05-08T14:22:32.401Z,18.80
2023-05-08T14:24:59.975Z,18.80
2023-05-08T14:27:27.234Z,18.80
2023-05-08T14:29:55.704Z,18.80
2023-05-08T14:32:22.894Z,18.90
2023-05-08T14:34:50.070Z,18.80
2023-05-08T14:37:17.797Z,18.70
2023-05-08T14:39:45.540Z,18.60
2023-05-08T14:44:42.762Z,18.60
2023-05-08T14:47:10.214Z,18.60
2023-05-08T14:49:38.802Z,18.60
2023-05-08T14:52:07.392Z,18.60
2023-05-08T14:54:34.805Z,18.60
2023-05-08T14:57:02.243Z,18.70
2023-05-08T14:59:29.474Z,18.70
2023-05-08T15:01:56.697Z,18.70
2023-05-08T15:04:23.917Z,18.60
2023-05-08T15:06:51.119Z,18.60
2023-05-08T15:09:18.477Z,18.60
2023-05-08T15:11:45.798Z,18.60
2023-05-08T15:14:13.188Z,18.70
2023-05-08T15:16:40.536Z,18.70
2023-05-08T15:19:09.534Z,18.70
2023-05-08T15:21:36.847Z,18.60
2023-05-08T15:24:04.268Z,18.60
2023-05-08T15:26:31.604Z,18.60
2023-05-08T15:28:58.763Z,18.60
2023-05-08T15:31:25.920Z,18.70
2023-05-08T15:33:53.233Z,18.70
2023-05-08T15:36:20.450Z,18.70
2023-05-08T15:38:49.161Z,18.70
2023-05-08T15:41:16.377Z,18.70
2023-05-08T15:43:45.305Z,18.70
2023-05-08T15:46:12.848Z,18.60
2023-05-08T15:48:40.039Z,18.40
2023-05-08T15:51:07.264Z,18.40
2023-05-08T15:53:35.681Z,18.30
2023-05-08T15:56:06.090Z,18.40
2023-05-08T15:58:33.297Z,18.40
2023-05-08T16:01:00.567Z,18.40
2023-05-08T16:03:27.939Z,18.40
2023-05-08T16:05:55.196Z,18.40
2023-05-08T16:08:22.346Z,18.40
2023-05-08T16:10:49.555Z,18.50
2023-05-08T16:13:17.041Z,18.50
2023-05-08T16:15:44.264Z,18.40
2023-05-08T16:18:11.556Z,18.40
2023-05-08T16:20:41.753Z,18.40
2023-05-08T16:23:09.164Z,18.20
2023-05-08T16:25:36.418Z,18.20
2023-05-08T16:28:03.895Z,18.20
2023-05-08T16:30:31.061Z,18.20
2023-05-08T16:32:58.515Z,18.30
2023-05-08T16:35:25.888Z,18.20
2023-05-08T16:37:53.192Z,18.20
2023-05-08T16:40:20.433Z,18.20
2023-05-08T16:42:47.656Z,18.30
2023-05-08T16:45:15.144Z,18.30
2023-05-08T16:47:42.520Z,18.30
2023-05-08T16:50:10.430Z,18.30
2023-05-08T16:52:38.464Z,18.20
2023-05-08T16:55:06.457Z,18.30
2023-05-08T16:57:33.693Z,18.20
2023-05-08T17:00:01.450Z,18.30
2023-05-08T17:02:28.700Z,18.20
2023-05-08T17:04:55.915Z,18.00
2023-05-08T17:07:24.026Z,17.90
2023-05-08T17:09:56.890Z,17.90
2023-05-08T17:12:25.192Z,17.90
2023-05-08T17:14:52.515Z,17.90
2023-05-08T17:17:19.786Z,17.90
2023-05-08T17:19:47.098Z,17.90
2023-05-08T17:22:14.317Z,17.90
2023-05-08T17:24:41.671Z,17.90
2023-05-08T17:27:09.487Z,17.90
2023-05-08T17:29:37.128Z,17.90
2023-05-08T17:32:35.614Z,17.80
2023-05-08T17:35:03.902Z,17.70
2023-05-08T17:37:34.843Z,17.00
2023-05-08T17:40:03.733Z,17.50
2023-05-08T17:42:31.670Z,17.50
2023-05-08T17:45:02.337Z,17.40
2023-05-08T17:47:31.093Z,17.40
2023-05-08T17:50:02.390Z,17.30
2023-05-08T17:52:29.995Z,17.30
2023-05-08T17:54:57.855Z,17.30
2023-05-08T17:57:26.404Z,17.30
2023-05-08T17:59:53.982Z,17.20
2023-05-08T18:02:21.539Z,17.10
2023-05-08T18:04:49.526Z,17.10
2023-05-08T18:07:17.356Z,17.00
2023-05-08T18:09:44.959Z,16.90
2023-05-08T18:12:12.841Z,16.90
2023-05-08T18:14:40.484Z,16.80
2023-05-08T18:17:08.054Z,16.80
2023-05-08T18:19:35.402Z,16.70
2023-05-08T18:22:02.981Z,16.70
2023-05-08T18:24:30.835Z,16.60
2023-05-08T18:26:58.410Z,16.50
2023-05-08T18:29:25.847Z,16.40
2023-05-08T18:31:53.239Z,16.40
2023-05-08T18:34:20.792Z,16.30
2023-05-08T18:36:48.272Z,16.20
2023-05-08T18:39:15.662Z,16.20
2023-05-08T18:41:43.092Z,16.00
2023-05-08T18:44:11.267Z,16.00
2023-05-08T18:46:38.827Z,15.90
2023-05-08T18:49:06.462Z,15.80
2023-05-08T18:51:33.870Z,15.70
2023-05-08T18:54:03.109Z,15.60
2023-05-08T18:56:30.896Z,15.50
2023-05-08T18:59:00.070Z,15.50
2023-05-08T19:01:30.735Z,15.40
2023-05-08T19:04:00.719Z,15.30
2023-05-08T19:06:28.108Z,15.20
2023-05-08T19:08:55.857Z,15.20
2023-05-08T19:11:23.416Z,15.10
2023-05-08T19:13:51.927Z,15.00
2023-05-08T19:16:19.486Z,15.00
2023-05-08T19:18:47.369Z,14.90
2023-05-08T19:21:15.032Z,14.90
2023-05-08T19:23:42.453Z,14.80
2023-05-08T19:26:10.001Z,14.80
2023-05-08T19:28:37.396Z,14.80
2023-05-08T19:31:05.087Z,14.70
2023-05-08T19:33:32.764Z,14.70
2023-05-08T19:36:00.241Z,14.60
2023-05-08T19:38:27.621Z,14.50
2023-05-08T19:40:57.670Z,14.40
2023-05-08T19:43:26.866Z,14.30
2023-05-08T19:45:55.484Z,14.20
2023-05-08T19:48:23.436Z,14.10
2023-05-08T19:50:53.584Z,14.00
2023-05-08T19:53:23.444Z,13.90
2023-05-08T19:55:51.308Z,13.80
2023-05-08T19:58:18.959Z,13.80
2023-05-08T20:00:50.859Z,13.70
2023-05-08T20:03:19.246Z,13.70
2023-05-08T20:05:46.979Z,13.60
2023-05-08T20:08:14.904Z,13.60
2023-05-08T20:10:42.412Z,13.50
2023-05-08T20:13:10.142Z,13.50
2023-05-08T20:15:37.706Z,13.50
2023-05-08T20:18:05.239Z,13.40
2023-05-08T20:20:32.677Z,13.40
2023-05-08T20:23:00.182Z,13.30
2023-05-08T20:25:28.403Z,13.30
2023-05-08T20:27:56.044Z,13.30
2023-05-08T20:30:23.933Z,13.20
2023-05-08T20:32:51.638Z,13.20
2023-05-08T20:35:19.196Z,13.10
2023-05-08T20:37:48.185Z,13.10
2023-05-08T20:40:16.211Z,13.00
2023-05-08T20:42:44.351Z,13.00
2023-05-08T20:45:12.351Z,12.90
2023-05-08T20:47:40.449Z,12.80
2023-05-08T20:50:08.676Z,12.80
2023-05-08T20:52:38.035Z,12.80
2023-05-08T20:55:10.331Z,12.70
2023-05-08T20:57:37.943Z,12.70
2023-05-08T21:00:09.313Z,12.70
2023-05-08T21:02:38.877Z,12.70
2023-05-08T21:05:07.379Z,12.60
2023-05-08T21:07:35.376Z,12.60
2023-05-08T21:10:03.303Z,12.50
2023-05-08T21:12:30.823Z,12.50
2023-05-08T21:14:58.182Z,12.50
2023-05-08T21:17:25.716Z,12.40
2023-05-08T21:19:53.067Z,12.40
2023-05-08T21:22:20.652Z,12.40
2023-05-08T21:24:48.247Z,12.30
2023-05-08T21:27:15.626Z,12.40
2023-05-08T21:29:43.020Z,12.30
2023-05-08T21:32:10.734Z,12.30
2023-05-08T21:34:41.530Z,12.20
2023-05-08T21:37:11.909Z,12.20
2023-05-08T21:39:40.339Z,12.10
2023-05-08T21:42:09.205Z,12.00
2023-05-08T21:44:36.688Z,11.90
2023-05-08T21:47:04.223Z,11.90
2023-05-08T21:49:31.657Z,11.80
2023-05-08T21:51:59.046Z,11.80
2023-05-08T21:54:26.443Z,11.80
2023-05-08T21:56:53.862Z,11.80
2023-05-08T21:59:21.262Z,11.80
2023-05-08T22:01:48.796Z,11.80
2023-05-08T22:04:16.274Z,11.80
2023-05-08T22:06:44.580Z,11.80
2023-05-08T22:09:11.835Z,11.80
2023-05-08T22:11:39.121Z,11.80
2023-05-08T22:14:06.427Z,11.80
2023-05-08T22:16:33.869Z,11.80
2023-05-08T22:19:01.250Z,11.70
2023-05-08T22:21:30.202Z,11.70
2023-05-08T22:23:57.679Z,11.60
2023-05-08T22:26:26.884Z,11.30
2023-05-08T22:28:55.560Z,11.60
2023-05-08T22:31:23.096Z,11.50
2023-05-08T22:33:50.712Z,11.50
2023-05-08T22:36:18.868Z,11.50
2023-05-08T22:38:46.302Z,11.50
2023-05-08T22:41:13.782Z,11.50
2023-05-08T22:43:41.424Z,11.40
2023-05-08T22:46:12.133Z,11.40
2023-05-08T22:48:39.623Z,11.80
2023-05-08T22:51:07.615Z,11.30
2023-05-08T22:53:35.056Z,11.30
2023-05-08T22:56:02.927Z,11.30
2023-05-08T22:58:30.709Z,11.20
2023-05-08T23:00:59.723Z,11.20
2023-05-08T23:03:27.618Z,11.10
2023-05-08T23:05:55.285Z,11.10
2023-05-08T23:08:25.280Z,11.00
2023-05-08T23:10:52.651Z,11.00
2023-05-08T23:13:20.508Z,11.00
2023-05-08T23:15:49.674Z,10.90
2023-05-08T23:18:24.290Z,10.90
2023-05-08T23:20:51.627Z,11.00
2023-05-08T23:23:18.911Z,10.90
2023-05-08T23:25:46.487Z,10.90
2023-05-08T23:28:14.304Z,11.00
2023-05-08T23:30:42.217Z,10.90
2023-05-08T23:33:09.840Z,10.90
2023-05-08T23:35:37.263Z,10.90
2023-05-08T23:38:04.835Z,10.80
2023-05-08T23:40:32.557Z,10.80
2023-05-08T23:43:00.020Z,10.80
2023-05-08T23:45:28.025Z,10.70
2023-05-08T23:47:55.841Z,10.70
2023-05-08T23:50:23.714Z,10.60
2023-05-08T23:52:51.147Z,10.50
2023-05-08T23:55:18.838Z,10.50
2023-05-08T23:57:46.457Z,10.50
